Time;durP1;ratioP1;P1;durP2;ratioP2;P2;SDS_P1;SDS_P2;PMS_P1;PMS_P2;Temp;Humidity;BMP_temperature;BMP_pressure;BME280_temperature;BME280_humidity;BME280_pressure;Samples;Min_cycle;Max_cycle;Signal;HPM_P1;HPM_P2
2023/09/05 00:02:46;;;;;;;6.03;2.00;;;;;;;15.48;83.46;101271.41;4906498;29;20047;-70
2023/09/05 00:05:59;;;;;;;4.35;2.13;;;;;;;15.41;83.26;101264.81;4917957;29;20509;-71
2023/09/05 00:09:02;;;;;;;5.13;1.95;;;;;;;15.41;83.34;101271.84;4913085;29;20055;-70
2023/09/05 00:12:06;;;;;;;8.23;2.10;;;;;;;15.42;83.14;101271.78;4917960;29;20095;-70
2023/09/05 00:15:11;;;;;;;5.35;1.77;;;;;;;15.37;83.32;101265.94;4913477;29;20119;-70
2023/09/05 00:18:14;;;;;;;5.88;1.52;;;;;;;15.41;83.17;101269.22;4917540;29;20050;-70
2023/09/05 00:21:18;;;;;;;3.28;1.70;;;;;;;15.40;82.79;101260.47;4917739;29;20462;-70
2023/09/05 00:24:33;;;;;;;7.65;2.17;;;;;;;15.27;83.32;101268.28;4918127;29;20131;-70
2023/09/05 00:27:40;;;;;;;7.97;2.05;;;;;;;15.21;84.22;101263.38;4917826;29;20461;-70
2023/09/05 00:30:45;;;;;;;4.18;2.00;;;;;;;15.20;83.92;101271.38;4905735;29;20099;-70
2023/09/05 00:33:49;;;;;;;9.65;1.92;;;;;;;15.17;83.78;101271.56;4917508;29;20422;-70
2023/09/05 00:36:52;;;;;;;7.22;2.10;;;;;;;15.06;84.24;101266.91;4917238;29;20539;-70
2023/09/05 00:39:56;;;;;;;6.18;2.30;;;;;;;15.14;83.87;101266.47;4916857;29;20482;-70
2023/09/05 00:42:59;;;;;;;7.85;2.05;;;;;;;15.09;83.53;101262.34;4917137;29;20112;-70
2023/09/05 00:46:06;;;;;;;4.93;2.05;;;;;;;15.07;83.71;101258.94;4917232;29;20132;-70
2023/09/05 00:49:10;;;;;;;6.72;1.90;;;;;;;15.08;83.84;101254.50;4917469;29;20103;-70
2023/09/05 00:52:14;;;;;;;7.65;2.25;;;;;;;15.01;84.41;101251.41;4913583;29;20087;-70
2023/09/05 00:55:19;;;;;;;5.90;2.63;;;;;;;14.98;84.64;101256.84;4905685;29;20510;-70
2023/09/05 00:58:23;;;;;;;3.95;1.75;;;;;;;15.00;84.37;101249.72;4916904;29;20118;-70
2023/09/05 01:01:26;;;;;;;4.50;1.80;;;;;;;15.03;84.15;101244.25;4916910;29;20071;-70
2023/09/05 01:04:33;;;;;;;4.50;1.80;;;;;;;15.02;83.74;101246.97;4905284;29;20054;-70
2023/09/05 01:08:02;;;;;;;6.25;1.77;;;;;;;15.01;83.41;101250.56;4916858;29;20372;-70
2023/09/05 01:11:08;;;;;;;9.68;2.15;;;;;;;14.80;84.19;101250.84;4916528;29;20051;-70
2023/09/05 01:14:11;;;;;;;8.38;1.83;;;;;;;14.83;84.36;101253.31;4917087;29;20067;-70
2023/09/05 01:17:15;;;;;;;6.80;1.75;;;;;;;14.85;84.39;101261.13;4916626;29;20050;-70
2023/09/05 01:20:19;;;;;;;5.85;2.05;;;;;;;14.77;84.53;101260.72;4916822;29;20039;-70
2023/09/05 01:23:30;;;;;;;10.32;2.00;;;;;;;14.73;84.69;101262.69;4905087;29;20526;-70
2023/09/05 01:26:34;;;;;;;5.93;1.92;;;;;;;14.63;84.92;101267.63;4916462;29;20517;-70
2023/09/05 01:29:40;;;;;;;7.65;2.03;;;;;;;14.67;84.84;101257.78;4916594;29;20047;-70
2023/09/05 01:32:46;;;;;;;3.80;1.98;;;;;;;14.65;85.01;101255.25;4916536;29;20083;-70
2023/09/05 01:35:50;;;;;;;9.50;1.92;;;;;;;14.75;84.58;101246.81;4916381;29;20579;-70
2023/09/05 01:38:53;;;;;;;7.53;2.25;;;;;;;14.60;85.00;101252.03;4916441;29;20051;-70
2023/09/05 01:41:58;;;;;;;6.95;2.08;;;;;;;14.52;85.12;101249.00;4916421;29;20055;-71
2023/09/05 01:45:01;;;;;;;5.88;2.20;;;;;;;14.55;85.29;101242.69;4916355;29;20102;-70
2023/09/05 01:48:04;;;;;;;3.55;1.80;;;;;;;14.52;85.42;101241.09;4904559;29;20414;-71
2023/09/05 01:51:09;;;;;;;4.18;1.65;;;;;;;14.57;85.01;101236.41;4916326;29;20126;-70
2023/09/05 01:54:12;;;;;;;4.90;2.10;;;;;;;14.52;85.21;101230.59;4916144;29;20509;-70
2023/09/05 01:57:15;;;;;;;8.50;2.28;;;;;;;14.49;85.39;101230.72;4916347;29;20126;-71
2023/09/05 02:00:19;;;;;;;17.73;1.92;;;;;;;14.45;85.44;101226.56;4916119;29;20414;-70
2023/09/05 02:03:23;;;;;;;6.88;1.88;;;;;;;14.45;85.47;101226.56;4916179;29;20087;-70
2023/09/05 02:06:26;;;;;;;7.82;2.30;;;;;;;14.39;85.58;101222.50;4916008;29;20076;-70
2023/09/05 02:09:29;;;;;;;9.40;2.05;;;;;;;14.38;85.57;101225.22;4903656;29;20079;-70
2023/09/05 02:12:35;;;;;;;8.65;1.60;;;;;;;14.38;85.37;101217.31;4903352;29;20043;-70
2023/09/05 02:15:38;;;;;;;3.85;1.88;;;;;;;14.35;85.28;101214.88;4915811;29;20095;-70
2023/09/05 02:18:42;;;;;;;6.03;2.35;;;;;;;14.41;84.80;101210.09;4904467;29;20414;-70
2023/09/05 02:21:46;;;;;;;4.53;2.10;;;;;;;14.39;84.47;101213.78;4915579;29;20066;-70
2023/09/05 02:24:49;;;;;;;7.28;2.35;;;;;;;14.26;85.36;101210.97;4916165;29;20509;-70
2023/09/05 02:27:52;;;;;;;8.20;2.28;;;;;;;14.21;85.57;101214.81;4916091;29;20107;-70
2023/09/05 02:30:56;;;;;;;11.25;1.95;;;;;;;14.21;85.47;101214.81;4915910;29;20047;-70
2023/09/05 02:33:59;;;;;;;4.78;1.98;;;;;;;14.17;85.34;101211.50;4893571;29;20043;-71
2023/09/05 02:37:04;;;;;;;4.78;2.33;;;;;;;14.14;85.61;101206.41;4915983;29;20421;-70
2023/09/05 02:40:09;;;;;;;8.82;2.80;;;;;;;14.15;85.27;101203.69;4915649;29;20513;-70
2023/09/05 02:43:13;;;;;;;4.20;1.90;;;;;;;14.12;85.51;101203.84;4915659;29;20063;-70
2023/09/05 02:46:16;;;;;;;4.95;1.92;;;;;;;14.14;85.10;101209.91;4915893;29;20074;-70
2023/09/05 02:49:19;;;;;;;5.80;1.65;;;;;;;14.07;85.57;101216.44;4904122;29;20098;-70
2023/09/05 02:52:24;;;;;;;4.95;2.10;;;;;;;14.02;85.50;101207.94;4915414;29;20171;-70
2023/09/05 02:55:27;;;;;;;5.70;2.33;;;;;;;14.03;85.44;101204.38;4915707;29;20095;-70
2023/09/05 02:58:32;;;;;;;5.75;2.00;;;;;;;13.98;85.44;101206.44;4916047;29;20050;-70
2023/09/05 03:01:36;;;;;;;5.45;2.35;;;;;;;13.90;85.64;101204.22;4903713;29;20498;-71
2023/09/05 03:04:39;;;;;;;7.85;2.85;;;;;;;13.86;85.99;101204.47;4884836;29;20464;-70
2023/09/05 03:07:45;;;;;;;5.25;2.15;;;;;;;13.79;86.43;101201.34;4918148;29;20067;-70
2023/09/05 03:10:52;;;;;;;7.40;2.10;;;;;;;13.79;86.45;101205.75;4915534;29;20736;-70
2023/09/05 03:13:57;;;;;;;6.85;2.00;;;;;;;13.85;85.95;101210.69;4903401;29;20051;-70
2023/09/05 03:17:02;;;;;;;10.77;2.03;;;;;;;13.86;85.97;101204.47;4903756;29;20062;-70
2023/09/05 03:20:07;;;;;;;6.30;1.55;;;;;;;13.87;85.75;101199.13;4915880;29;20413;-71
2023/09/05 03:23:11;;;;;;;5.82;1.77;;;;;;;13.85;85.95;101200.16;4907430;29;20096;-70
2023/09/05 03:26:16;;;;;;;3.30;1.63;;;;;;;13.84;85.82;101204.53;4907266;29;20128;-70
2023/09/05 03:29:19;;;;;;;4.22;1.67;;;;;;;13.82;85.80;101197.69;4918772;29;20038;-70
2023/09/05 03:32:22;;;;;;;5.55;1.52;;;;;;;13.76;86.44;101200.66;4906888;29;20047;-70
2023/09/05 03:35:25;;;;;;;5.90;1.70;;;;;;;13.77;86.33;101191.84;4899996;29;20163;-70
2023/09/05 03:38:30;;;;;;;9.90;1.98;;;;;;;13.83;86.08;101191.50;4889416;29;20047;-70
2023/09/05 03:41:33;;;;;;;5.03;1.92;;;;;;;13.78;86.25;101183.00;4918654;29;20035;-70
2023/09/05 03:44:36;;;;;;;4.18;1.70;;;;;;;13.70;86.27;101191.31;4918618;29;20058;-70
2023/09/05 03:47:40;;;;;;;6.30;2.47;;;;;;;13.67;86.50;101187.06;4899888;29;20427;-68
2023/09/05 03:50:43;;;;;;;3.58;1.60;;;;;;;13.70;86.17;101186.91;4899680;29;20067;-68
2023/09/05 03:53:47;;;;;;;4.85;1.80;;;;;;;13.73;85.67;101186.75;4899852;29;20043;-69
2023/09/05 03:56:50;;;;;;;9.45;2.20;;;;;;;13.67;85.64;101176.56;4900128;29;20138;-68
2023/09/05 03:59:53;;;;;;;7.20;2.15;;;;;;;13.64;85.95;101184.63;4906807;29;20051;-67
2023/09/05 04:02:57;;;;;;;4.30;1.75;;;;;;;13.57;86.36;101183.25;4917898;29;20043;-69
2023/09/05 04:10:22;;;;;;;6.75;2.10;;;;;;;13.57;86.27;101185.88;4896477;29;20047;-67
2023/09/05 04:13:30;;;;;;;8.60;2.50;;;;;;;13.58;86.39;101190.19;4899218;29;20047;-68
2023/09/05 04:16:33;;;;;;;5.43;1.63;;;;;;;13.59;86.01;101184.03;4917758;29;20095;-67
2023/09/05 04:19:36;;;;;;;3.90;1.58;;;;;;;13.47;86.47;101193.41;4917593;29;20100;-68
2023/09/05 04:22:40;;;;;;;8.52;1.98;;;;;;;13.43;86.67;101183.13;4917663;29;20055;-67
2023/09/05 04:25:43;;;;;;;4.18;1.58;;;;;;;13.49;86.29;101185.44;4905455;29;20127;-66
2023/09/05 04:28:46;;;;;;;5.28;2.08;;;;;;;13.31;87.55;101189.91;4905620;29;20050;-69
2023/09/05 04:31:49;;;;;;;5.07;2.13;;;;;;;13.28;87.61;101194.50;4899035;29;20423;-66
2023/09/05 04:34:55;;;;;;;6.38;1.83;;;;;;;13.38;87.16;101203.56;4905644;29;20119;-66
2023/09/05 04:37:58;;;;;;;7.85;2.33;;;;;;;13.35;87.42;101201.09;4917492;29;20128;-66
2023/09/05 04:41:02;;;;;;;9.60;2.53;;;;;;;13.42;86.50;101205.94;4912201;29;20099;-66
2023/09/05 04:44:05;;;;;;;3.50;1.80;;;;;;;13.40;86.54;101204.31;4912191;29;20055;-66
2023/09/05 04:47:26;;;;;;;5.60;1.50;;;;;;;13.37;86.39;101215.00;4915466;29;20054;-66
2023/09/05 04:50:30;;;;;;;12.88;2.17;;;;;;;13.40;86.38;101215.69;4915927;29;20111;-65
2023/09/05 04:53:33;;;;;;;8.93;1.75;;;;;;;13.36;86.73;101229.06;4915900;29;20088;-66
2023/09/05 04:56:37;;;;;;;16.40;3.28;;;;;;;13.41;86.52;101221.81;4915683;29;20046;-65
2023/09/05 04:59:43;;;;;;;6.75;2.17;;;;;;;13.46;85.93;101219.75;4915562;29;20139;-65
2023/09/05 05:02:47;;;;;;;7.50;1.70;;;;;;;13.45;85.91;101220.69;4915798;29;20047;-66
2023/09/05 05:05:51;;;;;;;8.45;2.42;;;;;;;13.35;86.43;101220.34;4915503;29;20050;-66
2023/09/05 05:08:54;;;;;;;;;;;;;;;13.37;86.47;101226.38;4916026;29;20043;-65
2023/09/05 05:11:57;;;;;;;8.13;2.45;;;;;;;13.37;86.53;101231.63;4915275;29;19929;-65
2023/09/05 05:15:00;;;;;;;9.70;2.72;;;;;;;13.44;86.26;101233.00;4915219;29;20174;-65
2023/09/05 05:18:04;;;;;;;6.65;1.88;;;;;;;13.42;86.18;101234.84;4915064;29;20119;-65
2023/09/05 05:21:07;;;;;;;6.60;1.60;;;;;;;13.35;86.87;101227.38;4915433;29;20095;-66
2023/09/05 05:24:11;;;;;;;15.00;2.20;;;;;;;13.34;86.85;101225.69;4915488;29;20070;-65
2023/09/05 05:27:14;;;;;;;7.80;2.65;;;;;;;13.25;87.24;101222.59;4915131;29;20123;-65
2023/09/05 05:30:17;;;;;;;2.92;1.48;;;;;;;13.28;87.26;101226.84;4911996;29;20050;-66
2023/09/05 05:33:21;;;;;;;4.25;2.10;;;;;;;13.35;87.11;101225.59;4914665;29;20525;-66
2023/09/05 05:36:24;;;;;;;4.07;2.15;;;;;;;13.40;87.56;101222.72;4915175;29;20135;-65
2023/09/05 05:39:28;;;;;;;4.95;2.22;;;;;;;13.38;88.01;101220.19;4914992;29;20525;-65
2023/09/05 05:42:35;;;;;;;3.70;1.90;;;;;;;13.42;88.02;101213.81;4903950;29;20114;-65
2023/09/05 05:45:40;;;;;;;6.65;2.50;;;;;;;13.44;88.30;101214.59;4914865;29;20051;-65
2023/09/05 05:48:45;;;;;;;5.30;2.03;;;;;;;13.50;88.12;101213.44;4915081;29;20562;-66
2023/09/05 05:51:50;;;;;;;7.38;2.35;;;;;;;13.53;87.96;101215.03;4914987;29;20482;-65
2023/09/05 05:54:54;;;;;;;5.05;1.95;;;;;;;13.47;88.24;101216.22;4914941;29;20127;-65
2023/09/05 05:57:58;;;;;;;6.50;2.75;;;;;;;13.39;89.32;101213.13;4914829;29;20046;-65
2023/09/05 06:01:01;;;;;;;4.18;2.08;;;;;;;13.46;88.81;101214.50;4914848;29;20055;-65
2023/09/05 06:04:05;;;;;;;6.68;2.17;;;;;;;13.49;89.06;101219.59;4902810;29;20050;-65
2023/09/05 06:07:08;;;;;;;4.03;1.95;;;;;;;13.55;89.06;101215.78;4914469;29;20042;-65
2023/09/05 06:10:11;;;;;;;4.45;2.00;;;;;;;13.58;89.33;101223.50;4914653;29;20088;-65
2023/09/05 06:13:14;;;;;;;6.65;2.40;;;;;;;13.57;89.84;101217.41;4902620;29;20107;-66
2023/09/05 06:16:19;;;;;;;6.95;2.10;;;;;;;13.67;89.64;101229.13;4911321;29;20066;-66
2023/09/05 06:19:22;;;;;;;4.53;1.77;;;;;;;13.75;89.69;101225.22;4914133;29;20058;-66
2023/09/05 06:22:26;;;;;;;7.20;2.00;;;;;;;13.89;89.33;101231.44;4914162;29;20087;-66
2023/09/05 06:25:29;;;;;;;4.20;2.10;;;;;;;13.85;90.29;101226.44;4914207;29;20047;-66
2023/09/05 06:28:32;;;;;;;5.55;2.10;;;;;;;13.92;90.34;101223.38;4902599;29;20062;-66
2023/09/05 06:31:35;;;;;;;9.10;2.10;;;;;;;13.96;89.91;101224.06;4914226;29;20059;-65
2023/09/05 06:34:40;;;;;;;5.90;2.05;;;;;;;14.02;90.10;101217.63;4914476;29;20051;-65
2023/09/05 06:37:43;;;;;;;5.40;2.20;;;;;;;14.09;90.55;101214.56;4914678;29;20115;-65
2023/09/05 06:40:47;;;;;;;7.07;2.30;;;;;;;14.17;90.09;101204.47;4914041;29;20054;-66
2023/09/05 06:43:50;;;;;;;7.28;2.60;;;;;;;14.30;89.84;101209.88;4914149;29;20557;-68
2023/09/05 06:46:54;;;;;;;5.13;2.08;;;;;;;14.38;90.36;101206.78;4914287;29;20099;-67
2023/09/05 06:49:57;;;;;;;3.60;1.98;;;;;;;14.36;90.84;101211.31;4913863;29;20522;-69
2023/09/05 06:53:01;;;;;;;6.32;1.85;;;;;;;14.46;90.63;101211.63;4914109;29;20047;-67
2023/09/05 06:56:05;;;;;;;4.10;2.08;;;;;;;14.60;90.37;101220.44;4916590;29;20441;-66
2023/09/05 06:59:16;;;;;;;7.75;2.22;;;;;;;14.70;89.84;101207.59;4917862;29;20570;-67
2023/09/05 07:02:20;;;;;;;4.07;2.30;;;;;;;14.83;90.35;101213.81;4906833;29;20062;-67
2023/09/05 07:05:24;;;;;;;4.97;2.38;;;;;;;14.92;89.64;101204.53;4917676;29;20107;-67
2023/09/05 07:08:27;;;;;;;3.97;2.13;;;;;;;15.01;89.57;101214.53;4917639;29;20415;-67
2023/09/05 07:11:31;;;;;;;7.32;2.47;;;;;;;15.17;89.30;101217.09;4917282;29;20158;-66
2023/09/05 07:14:34;;;;;;;4.07;2.05;;;;;;;15.25;89.69;101219.25;4917380;29;20087;-66
2023/09/05 07:17:37;;;;;;;4.20;1.92;;;;;;;15.34;88.80;101218.69;4917527;29;20051;-65
2023/09/05 07:20:40;;;;;;;7.28;2.55;;;;;;;15.44;88.54;101217.19;4917600;29;20180;-67
2023/09/05 07:23:44;;;;;;;6.85;2.10;;;;;;;15.58;88.69;101214.53;4917872;29;20043;-67
2023/09/05 07:26:47;;;;;;;6.70;2.22;;;;;;;15.74;88.94;101218.91;4917490;29;20083;-67
2023/09/05 07:29:51;;;;;;;6.78;2.20;;;;;;;15.83;89.10;101212.22;4917060;29;20055;-67
2023/09/05 07:32:53;;;;;;;4.45;1.80;;;;;;;15.92;88.82;101217.75;4917201;29;20099;-64
2023/09/05 07:35:58;;;;;;;5.60;2.17;;;;;;;16.02;88.32;101215.38;4917006;29;20050;-67
2023/09/05 07:39:03;;;;;;;4.15;2.15;;;;;;;16.11;88.53;101211.25;4916963;29;20131;-70
2023/09/05 07:42:06;;;;;;;7.78;2.42;;;;;;;16.26;89.46;101207.63;4916991;29;20150;-67
2023/09/05 07:45:10;;;;;;;4.60;2.08;;;;;;;16.38;90.90;101206.84;4917113;29;20043;-68
2023/09/05 07:48:13;;;;;;;5.65;2.42;;;;;;;16.50;90.49;101213.13;4916820;29;20187;-68
2023/09/05 07:51:16;;;;;;;7.13;2.08;;;;;;;16.57;90.03;101219.66;4916882;29;20067;-73
2023/09/05 07:54:20;;;;;;;6.30;2.40;;;;;;;16.65;90.47;101204.16;4916663;29;20106;-67
2023/09/05 07:57:24;;;;;;;4.93;2.50;;;;;;;16.76;89.42;101206.13;4916595;29;20047;-67
2023/09/05 08:00:27;;;;;;;4.90;2.22;;;;;;;16.89;89.84;101204.34;4917075;29;20078;-68
2023/09/05 08:03:30;;;;;;;5.15;2.22;;;;;;;17.00;90.61;101208.88;4916417;29;20119;-68
2023/09/05 08:06:35;;;;;;;6.75;2.13;;;;;;;17.10;89.02;101199.41;4915805;29;20051;-73
2023/09/05 08:09:38;;;;;;;6.68;2.70;;;;;;;17.25;89.15;101205.38;4916390;29;20063;-68
2023/09/05 08:12:42;;;;;;;9.32;2.70;;;;;;;17.36;87.94;101205.50;4916524;29;20413;-68
2023/09/05 08:15:45;;;;;;;7.82;2.25;;;;;;;17.53;87.08;101192.91;4916186;29;20063;-68
2023/09/05 08:18:48;;;;;;;4.07;2.35;;;;;;;17.66;85.19;101199.84;4916336;29;20463;-68
2023/09/05 08:21:52;;;;;;;5.68;2.28;;;;;;;17.81;84.99;101202.38;4916782;29;20516;-70
2023/09/05 08:24:55;;;;;;;3.90;2.38;;;;;;;18.02;83.29;101187.56;4916551;29;20506;-68
2023/09/05 08:27:58;;;;;;;5.15;2.55;;;;;;;18.14;81.82;101188.50;4916354;29;20122;-68
2023/09/05 08:31:02;;;;;;;7.10;2.00;;;;;;;18.36;81.71;101199.19;4916240;29;20051;-68
2023/09/05 08:34:07;;;;;;;4.75;1.90;;;;;;;18.63;80.09;101194.56;4916041;29;20096;-73
2023/09/05 08:37:10;;;;;;;4.32;2.05;;;;;;;18.86;78.99;101193.72;4916130;29;20478;-74
2023/09/05 08:40:18;;;;;;;6.30;2.20;;;;;;;19.04;77.80;101191.44;4916011;29;20059;-73
2023/09/05 08:43:21;;;;;;;4.25;1.70;;;;;;;19.22;78.17;101187.38;4915769;29;20096;-74
2023/09/05 08:46:28;;;;;;;4.28;2.40;;;;;;;19.33;76.78;101173.25;4915880;29;20054;-74
2023/09/05 08:49:35;;;;;;;6.07;2.40;;;;;;;19.49;76.46;101180.84;4916083;29;20039;-72
2023/09/05 08:52:43;;;;;;;3.17;1.63;;;;;;;19.54;76.43;101175.19;4916124;29;20051;-71
2023/09/05 08:55:47;;;;;;;4.72;1.83;;;;;;;19.81;73.54;101177.47;4916100;29;20465;-71
2023/09/05 08:58:59;;;;;;;5.78;2.03;;;;;;;19.87;72.61;101164.53;4894750;29;20086;-71
2023/09/05 09:02:03;;;;;;;3.45;1.80;;;;;;;20.08;71.47;101169.91;4915862;29;20111;-71
2023/09/05 09:05:06;;;;;;;4.22;2.20;;;;;;;20.15;71.71;101165.78;4915783;29;20063;-71
2023/09/05 09:08:10;;;;;;;3.60;2.15;;;;;;;20.37;70.00;101159.53;4915958;29;20104;-71
2023/09/05 09:11:15;;;;;;;5.28;1.75;;;;;;;20.61;69.31;101155.81;4915767;29;20055;-71
2023/09/05 09:14:23;;;;;;;5.38;2.17;;;;;;;20.65;70.28;101150.13;4912609;29;20146;-71
2023/09/05 09:17:28;;;;;;;6.65;2.20;;;;;;;20.95;69.53;101144.97;4915365;29;20058;-71
2023/09/05 09:20:44;;;;;;;3.72;1.80;;;;;;;20.82;68.51;101137.19;4915724;29;20103;-72
2023/09/05 09:23:50;;;;;;;3.75;2.05;;;;;;;20.84;68.46;101140.59;4904074;29;20075;-72
2023/09/05 09:26:55;;;;;;;2.83;1.42;;;;;;;20.90;67.41;101140.06;4915642;29;20063;-71
2023/09/05 09:29:59;;;;;;;5.00;1.40;;;;;;;21.01;67.67;101145.28;4903538;29;20047;-71
2023/09/05 09:33:03;;;;;;;2.60;1.50;;;;;;;21.10;66.10;101136.50;4915334;29;20047;-68
2023/09/05 09:36:11;;;;;;;4.75;1.95;;;;;;;21.34;63.91;101132.66;4915437;29;20115;-68
2023/09/05 09:39:16;;;;;;;6.82;1.58;;;;;;;21.68;60.37;101140.34;4915587;29;20466;-68
2023/09/05 09:42:23;;;;;;;6.25;1.73;;;;;;;21.61;58.89;101140.06;4915283;29;20063;-68
2023/09/05 09:45:27;;;;;;;5.25;1.50;;;;;;;21.72;61.46;101141.75;4915434;29;20051;-68
2023/09/05 09:48:34;;;;;;;3.20;1.67;;;;;;;21.76;59.87;101138.69;4915235;29;20139;-69
2023/09/05 09:51:39;;;;;;;2.33;1.20;;;;;;;22.04;57.78;101131.69;4914533;29;20581;-68
2023/09/05 09:54:48;;;;;;;2.45;1.40;;;;;;;21.97;58.43;101127.91;4914568;29;20479;-68
2023/09/05 09:58:08;;;;;;;3.33;1.20;;;;;;;21.98;55.51;101126.91;4914808;29;20078;-68
2023/09/05 10:01:13;;;;;;;3.03;1.25;;;;;;;21.87;55.03;101127.06;4914936;29;20106;-70
2023/09/05 10:04:17;;;;;;;3.15;1.40;;;;;;;21.90;56.26;101124.13;4914746;29;20047;-70
2023/09/05 10:07:22;;;;;;;4.75;1.50;;;;;;;22.27;56.53;101123.44;4914776;29;20051;-70
2023/09/05 10:10:25;;;;;;;3.78;1.50;;;;;;;22.44;56.71;101122.72;4902600;29;20122;-70
2023/09/05 10:13:33;;;;;;;3.78;1.40;;;;;;;22.36;51.05;101116.44;4914593;29;20414;-70
2023/09/05 10:16:38;;;;;;;1.92;1.10;;;;;;;22.27;51.90;101118.13;4914578;29;20138;-68
2023/09/05 10:19:44;;;;;;;3.95;1.50;;;;;;;22.38;50.73;101109.97;4914603;29;20047;-67
2023/09/05 10:22:47;;;;;;;2.63;1.25;;;;;;;22.48;52.84;101112.63;4914793;29;20374;-67
2023/09/05 10:25:51;;;;;;;2.33;1.00;;;;;;;22.59;50.23;101104.47;4915064;29;20079;-67
2023/09/05 10:28:56;;;;;;;3.28;1.23;;;;;;;22.54;49.30;101109.41;4914572;29;20051;-68
2023/09/05 10:32:01;;;;;;;3.00;1.45;;;;;;;22.69;52.09;101107.13;4918217;29;20519;-67
2023/09/05 10:35:05;;;;;;;2.53;1.20;;;;;;;22.56;49.80;101109.22;4918315;29;20062;-67
2023/09/05 10:38:09;;;;;;;2.60;1.10;;;;;;;22.62;48.13;101103.31;4918212;29;20051;-67
2023/09/05 10:41:37;;;;;;;2.78;1.13;;;;;;;22.59;51.60;101093.81;4918411;29;20051;-67
2023/09/05 10:44:41;;;;;;;3.88;1.55;;;;;;;22.93;53.02;101094.13;4918230;29;20066;-67
2023/09/05 10:47:45;;;;;;;2.70;1.20;;;;;;;23.11;49.04;101086.22;4918029;29;20111;-67
2023/09/05 10:51:10;;;;;;;3.20;1.20;;;;;;;23.31;48.05;101083.44;4917780;29;20107;-69
2023/09/05 10:54:30;;;;;;;2.53;1.25;;;;;;;23.30;50.28;101082.59;4918077;29;20198;-68
2023/09/05 10:57:41;;;;;;;2.92;1.27;;;;;;;23.22;48.99;101069.16;4918176;29;20055;-68
2023/09/05 11:01:44;;;;;;;5.40;1.27;;;;;;;23.35;49.29;101074.13;4918035;29;20493;-68
2023/09/05 11:04:49;;;;;;;2.63;1.15;;;;;;;23.57;49.53;101068.34;4898883;29;20055;-68
2023/09/05 11:08:06;;;;;;;2.90;1.20;;;;;;;23.50;48.73;101061.13;4918666;29;20047;-68
2023/09/05 11:11:23;;;;;;;2.95;1.40;;;;;;;23.42;47.31;101060.06;4917909;29;20119;-68
2023/09/05 11:14:31;;;;;;;5.10;1.85;;;;;;;23.46;49.49;101075.78;4918219;29;20498;-68
2023/09/05 11:17:36;;;;;;;4.05;1.40;;;;;;;23.79;47.70;101071.63;4917523;29;20108;-72
2023/09/05 11:20:46;;;;;;;3.20;1.23;;;;;;;23.85;48.75;101077.19;4917922;29;20103;-73
2023/09/05 11:23:51;;;;;;;2.90;1.17;;;;;;;24.01;47.42;101072.97;4917550;29;20066;-68
2023/09/05 11:26:55;;;;;;;4.50;1.55;;;;;;;24.17;46.94;101069.59;4917578;29;20525;-68
2023/09/05 11:30:00;;;;;;;3.10;1.33;;;;;;;24.15;46.39;101061.72;4917762;29;20135;-68
2023/09/05 11:33:09;;;;;;;4.50;1.40;;;;;;;23.97;47.59;101063.59;4917105;29;20074;-68
2023/09/05 11:36:12;;;;;;;3.20;1.50;;;;;;;24.31;47.61;101067.22;4917580;29;20481;-69
2023/09/05 11:39:17;;;;;;;5.68;1.65;;;;;;;24.29;46.58;101063.84;4917318;29;20050;-68
2023/09/05 11:42:30;;;;;;;2.60;1.40;;;;;;;24.54;46.36;101061.38;4916078;29;20130;-70
2023/09/05 11:45:35;;;;;;;3.70;1.15;;;;;;;24.54;46.36;101061.38;4917318;29;20047;-69
2023/09/05 11:48:38;;;;;;;3.30;1.17;;;;;;;24.83;44.55;101045.81;4917292;29;20047;-68
2023/09/05 11:51:42;;;;;;;6.53;1.73;;;;;;;24.93;44.31;101055.53;4917401;29;20055;-68
2023/09/05 11:54:48;;;;;;;3.42;1.20;;;;;;;24.72;43.85;101046.06;4917360;29;20201;-68
2023/09/05 11:57:56;;;;;;;2.25;1.27;;;;;;;24.79;45.72;101044.47;4917315;29;20102;-68
2023/09/05 12:01:00;;;;;;;5.63;1.80;;;;;;;24.79;44.27;101048.94;4917172;29;20415;-67
2023/09/05 12:04:06;;;;;;;3.00;1.35;;;;;;;24.87;43.26;101037.47;4917163;29;20111;-68
2023/09/05 12:07:11;;;;;;;5.18;1.58;;;;;;;24.83;42.11;101032.44;4917356;29;20188;-69
2023/09/05 12:10:16;;;;;;;2.45;1.25;;;;;;;24.94;43.20;101022.44;4917059;29;20091;-69
2023/09/05 12:13:34;;;;;;;5.15;1.92;;;;;;;25.11;42.49;101032.22;4916694;29;20051;-70
2023/09/05 12:16:37;;;;;;;6.65;1.83;;;;;;;25.34;41.50;101012.88;4914226;29;20062;-67
2023/09/05 12:19:41;;;;;;;4.07;1.40;;;;;;;25.47;38.84;101007.88;4914952;29;20047;-67
2023/09/05 12:22:48;;;;;;;3.83;1.33;;;;;;;25.82;37.76;101013.97;4909026;29;20078;-68
2023/09/05 12:25:54;;;;;;;2.75;1.42;;;;;;;25.90;38.38;101013.94;4913501;29;20103;-67
2023/09/05 12:28:58;;;;;;;2.33;1.48;;;;;;;26.31;38.77;101006.69;4914206;29;20047;-67
2023/09/05 12:32:05;;;;;;;4.18;1.60;;;;;;;26.65;36.95;101009.13;4914913;29;20111;-67
2023/09/05 12:35:09;;;;;;;4.28;1.52;;;;;;;27.06;37.33;101003.56;4911646;29;20058;-67
2023/09/05 12:38:14;;;;;;;2.72;1.35;;;;;;;27.35;35.36;101000.22;4913308;29;20038;-70
2023/09/05 12:41:17;;;;;;;3.47;1.00;;;;;;;27.75;35.86;100997.41;4916502;29;20119;-69
2023/09/05 12:44:20;;;;;;;3.70;1.40;;;;;;;28.19;35.79;100994.00;4916345;29;20119;-69
2023/09/05 12:47:23;;;;;;;7.75;1.20;;;;;;;28.54;33.81;100988.94;4916048;29;20051;-70
2023/09/05 12:50:32;;;;;;;4.82;1.13;;;;;;;28.72;34.59;100981.31;4916195;29;20055;-66
2023/09/05 12:53:36;;;;;;;3.42;1.30;;;;;;;28.38;35.20;100988.06;4915952;29;20524;-67
2023/09/05 12:56:39;;;;;;;4.38;1.80;;;;;;;29.17;32.45;100971.28;4915886;29;20415;-67
2023/09/05 12:59:43;;;;;;;3.47;1.30;;;;;;;29.69;31.70;100985.47;4913734;29;20063;-67
2023/09/05 13:02:46;;;;;;;2.80;1.42;;;;;;;30.08;31.58;100974.16;4913951;29;20047;-67
2023/09/05 13:05:49;;;;;;;2.30;1.05;;;;;;;30.11;30.13;100974.59;4915182;29;20050;-67
2023/09/05 13:08:53;;;;;;;5.18;1.10;;;;;;;30.55;30.72;100965.31;4915306;29;20055;-67
2023/09/05 13:11:56;;;;;;;3.38;1.20;;;;;;;30.70;30.70;100959.78;4915427;29;20079;-67
2023/09/05 13:15:00;;;;;;;4.78;1.17;;;;;;;31.44;29.77;100963.53;4915649;29;20107;-68
2023/09/05 13:18:03;;;;;;;3.88;1.40;;;;;;;31.92;29.02;100963.34;4915420;29;20067;-67
2023/09/05 13:21:07;;;;;;;2.00;1.02;;;;;;;32.44;27.69;100948.03;4915391;29;20195;-67
2023/09/05 13:24:10;;;;;;;3.08;1.30;;;;;;;32.95;26.80;100944.44;4915531;29;20066;-68
2023/09/05 13:27:13;;;;;;;2.85;1.63;;;;;;;33.43;27.03;100940.41;4903493;29;20562;-68
2023/09/05 13:30:17;;;;;;;2.03;1.20;;;;;;;34.19;25.75;100933.88;4915478;29;20059;-68
2023/09/05 13:33:20;;;;;;;3.25;1.55;;;;;;;36.07;24.99;100935.25;4903042;29;20051;-67
2023/09/05 13:36:23;;;;;;;2.42;1.42;;;;;;;38.30;22.05;100926.84;4914882;29;20066;-68
2023/09/05 13:39:28;;;;;;;2.35;1.45;;;;;;;41.93;17.78;100912.13;4914366;29;20486;-68
2023/09/05 13:42:32;;;;;;;4.35;1.60;;;;;;;43.77;15.60;100913.59;4914472;29;20191;-68
2023/09/05 13:45:35;;;;;;;4.93;1.60;;;;;;;45.61;14.77;100906.16;4914943;29;20059;-68
2023/09/05 13:48:39;;;;;;;4.75;1.60;;;;;;;46.08;14.00;100900.50;4915126;29;20072;-69
2023/09/05 13:51:42;;;;;;;2.10;1.35;;;;;;;46.09;13.21;100896.63;4915177;29;20042;-68
2023/09/05 13:54:46;;;;;;;4.60;1.30;;;;;;;47.74;12.34;100900.56;4903020;29;20099;-69
2023/09/05 13:57:49;;;;;;;4.55;1.38;;;;;;;47.51;12.07;100892.28;4914399;29;20047;-69
2023/09/05 14:00:52;;;;;;;3.20;1.40;;;;;;;48.07;12.77;100892.63;4914979;29;20422;-69
2023/09/05 14:03:56;;;;;;;2.38;1.35;;;;;;;48.52;11.82;100877.69;4914791;29;20047;-69
2023/09/05 14:07:00;;;;;;;3.72;1.50;;;;;;;49.24;10.82;100873.31;4915465;29;20131;-69
2023/09/05 14:10:04;;;;;;;5.78;1.67;;;;;;;48.70;11.12;100870.13;4914824;29;20039;-69
2023/09/05 14:13:06;;;;;;;2.53;1.42;;;;;;;49.15;11.25;100864.19;4914791;29;20513;-69
2023/09/05 14:16:10;;;;;;;3.38;1.20;;;;;;;49.50;11.25;100860.13;4914755;29;20165;-69
2023/09/05 14:19:13;;;;;;;2.40;1.33;;;;;;;49.55;11.40;100859.94;4914728;29;20042;-69
2023/09/05 14:22:17;;;;;;;1.95;1.30;;;;;;;50.24;10.91;100849.50;4914893;29;20039;-70
2023/09/05 14:25:21;;;;;;;2.75;1.45;;;;;;;50.55;10.34;100848.22;4915050;29;20058;-68